Time;durP1;ratioP1;P1;durP2;ratioP2;P2;SDS_P1;SDS_P2;PMS_P1;PMS_P2;Temp;Humidity;BMP_temperature;BMP_pressure;BME280_temperature;BME280_humidity;BME280_pressure;Samples;Min_cycle;Max_cycle;Signal;HPM_P1;HPM_P2
2020/12/14 00:02:01;;;;;;;6.82;3.85;;;;;;;3.59;nan;96176.59;4975690;28;20792;-69
2020/12/14 00:04:28;;;;;;;8.25;4.10;;;;;;;3.60;nan;96160.25;4975528;28;20273;-68
2020/12/14 00:06:55;;;;;;;20.45;5.10;;;;;;;3.57;nan;96147.53;4975829;28;20643;-72
2020/12/14 00:09:23;;;;;;;5.90;3.97;;;;;;;3.58;nan;96138.06;4975679;28;20315;-68
2020/12/14 00:11:50;;;;;;;7.15;3.58;;;;;;;3.60;nan;96141.44;4976089;28;20283;-70
2020/12/14 00:14:18;;;;;;;11.70;3.30;;;;;;;3.45;nan;96137.75;4975446;28;20572;-71
2020/12/14 00:16:45;;;;;;;7.00;3.80;;;;;;;3.47;nan;96135.97;4975942;28;20712;-69
2020/12/14 00:19:11;;;;;;;9.98;4.47;;;;;;;3.54;nan;96142.50;4975256;28;20231;-68
2020/12/14 00:21:38;;;;;;;11.38;4.45;;;;;;;3.50;nan;96143.53;4980183;28;20712;-69
2020/12/14 00:24:05;;;;;;;6.88;3.05;;;;;;;3.55;nan;96135.63;4974979;28;20529;-69
2020/12/14 00:26:32;;;;;;;7.50;3.90;;;;;;;3.49;nan;96147.03;4976687;28;20679;-69
2020/12/14 00:28:59;;;;;;;11.55;4.47;;;;;;;3.50;nan;96142.69;4972701;28;20221;-69
2020/12/14 00:31:26;;;;;;;6.80;3.70;;;;;;;3.52;nan;96148.63;4976143;28;20709;-69
2020/12/14 00:33:53;;;;;;;6.93;3.92;;;;;;;3.49;nan;96156.47;4975783;28;20686;-69
2020/12/14 00:36:20;;;;;;;5.25;4.00;;;;;;;3.48;nan;96165.06;4976328;28;20199;-69
2020/12/14 00:38:47;;;;;;;5.97;4.30;;;;;;;3.46;nan;96167.69;4975378;28;20300;-69
2020/12/14 00:41:18;;;;;;;6.78;3.63;;;;;;;3.44;nan;96176.41;4976022;28;20582;-69
2020/12/14 00:43:45;;;;;;;7.85;4.22;;;;;;;3.45;nan;96189.19;4973706;28;20322;-68
2020/12/14 00:46:12;;;;;;;5.85;4.20;;;;;;;3.46;nan;96180.56;4978635;28;20587;-67
2020/12/14 00:48:40;;;;;;;10.20;3.60;;;;;;;3.48;nan;96183.94;4979008;28;20224;-67
2020/12/14 00:51:07;;;;;;;8.52;4.57;;;;;;;3.45;nan;96181.47;4980383;28;20532;-67
2020/12/14 00:53:34;;;;;;;8.00;4.90;;;;;;;3.40;nan;96196.28;4978651;28;20674;-67
2020/12/14 00:56:02;;;;;;;8.05;5.07;;;;;;;3.41;nan;96197.09;4978715;28;20189;-67
2020/12/14 00:58:28;;;;;;;8.10;4.30;;;;;;;3.39;nan;96193.75;4978772;28;20321;-67
2020/12/14 01:00:56;;;;;;;9.85;4.80;;;;;;;3.25;nan;96190.91;4979353;28;20220;-66
2020/12/14 01:03:23;;;;;;;12.43;4.25;;;;;;;3.13;nan;96187.09;4979094;28;20253;-66
2020/12/14 01:05:51;;;;;;;15.27;3.67;;;;;;;3.02;nan;96178.13;4978760;28;20233;-67
2020/12/14 01:08:20;;;;;;;11.82;4.43;;;;;;;3.03;nan;96179.78;4979073;28;20359;-67
2020/12/14 01:10:48;;;;;;;9.20;3.80;;;;;;;3.06;nan;96184.81;4979420;28;20314;-72
2020/12/14 01:13:14;;;;;;;6.25;3.78;;;;;;;3.08;nan;96178.72;4978149;28;20314;-70
2020/12/14 01:15:42;;;;;;;4.80;3.60;;;;;;;3.16;nan;96173.28;4976683;28;20776;-69
2020/12/14 01:18:09;;;;;;;6.95;3.90;;;;;;;3.16;nan;96175.84;4978042;28;20207;-69
2020/12/14 01:20:39;;;;;;;10.68;3.75;;;;;;;3.13;nan;96166.53;4982247;28;20201;-69
2020/12/14 01:23:07;;;;;;;5.82;3.50;;;;;;;3.09;nan;96164.94;4977939;28;20301;-67
2020/12/14 01:25:34;;;;;;;7.78;4.57;;;;;;;3.00;nan;96155.03;4978428;28;20854;-67
2020/12/14 01:28:01;;;;;;;5.18;3.65;;;;;;;3.05;nan;96158.28;4978646;28;20522;-66
2020/12/14 01:30:28;;;;;;;7.95;3.97;;;;;;;3.02;nan;96158.38;4978275;28;20290;-67
2020/12/14 01:32:55;;;;;;;8.85;4.82;;;;;;;3.01;nan;96171.31;4978134;28;20551;-66
2020/12/14 01:35:21;;;;;;;6.93;3.90;;;;;;;3.04;nan;96174.59;4979533;28;20199;-67
2020/12/14 01:37:48;;;;;;;7.93;4.00;;;;;;;3.06;nan;96182.22;4979020;28;20199;-67
2020/12/14 01:40:16;;;;;;;7.80;4.32;;;;;;;3.08;nan;96181.28;4978666;28;20676;-67
2020/12/14 01:42:44;;;;;;;10.85;3.90;;;;;;;3.17;nan;96183.47;4976992;28;20220;-68
2020/12/14 01:45:11;;;;;;;6.57;3.88;;;;;;;3.18;nan;96177.47;4978831;28;20225;-70
2020/12/14 01:47:42;;;;;;;9.00;4.50;;;;;;;3.14;nan;96181.03;4978404;28;20202;-68
2020/12/14 01:50:13;;;;;;;6.93;4.65;;;;;;;3.22;nan;96186.72;4977954;28;20229;-68
2020/12/14 01:52:41;;;;;;;11.43;4.43;;;;;;;3.25;nan;96196.03;4977311;28;20728;-71
2020/12/14 01:55:09;;;;;;;12.13;4.25;;;;;;;3.24;nan;96182.34;4974987;28;20229;-72
2020/12/14 01:57:37;;;;;;;8.30;3.90;;;;;;;3.35;nan;96195.63;4977926;28;20611;-72
2020/12/14 02:00:06;;;;;;;14.48;4.20;;;;;;;3.34;nan;96200.81;4977547;28;20661;-69
2020/12/14 02:02:33;;;;;;;10.43;4.60;;;;;;;3.33;nan;96183.72;4977449;28;20211;-67
2020/12/14 02:05:01;;;;;;;10.68;4.80;;;;;;;3.29;nan;96177.84;4977824;28;20627;-67
2020/12/14 02:07:28;;;;;;;12.23;4.72;;;;;;;3.27;nan;96174.53;4977931;28;20287;-67
2020/12/14 02:09:55;;;;;;;12.40;4.88;;;;;;;3.05;nan;96168.56;4977814;28;20308;-69
2020/12/14 02:12:22;;;;;;;8.18;4.25;;;;;;;3.09;nan;96185.53;4977847;28;20573;-68
2020/12/14 02:14:52;;;;;;;8.20;3.80;;;;;;;3.02;nan;96186.66;4977030;28;20275;-73
2020/12/14 02:17:20;;;;;;;11.70;4.20;;;;;;;2.97;nan;96183.44;4978026;28;20232;-69
2020/12/14 02:19:47;;;;;;;15.40;4.22;;;;;;;3.01;nan;96172.13;4978248;28;20251;-69
2020/12/14 02:22:18;;;;;;;8.27;4.95;;;;;;;3.05;nan;96173.69;4979481;28;20211;-72
2020/12/14 02:24:52;;;;;;;20.80;5.53;;;;;;;3.12;nan;96175.13;4975634;28;20740;-70
2020/12/14 02:27:19;;;;;;;11.98;4.50;;;;;;;3.10;nan;96176.09;4977659;28;20229;-69
2020/12/14 02:29:47;;;;;;;6.53;4.35;;;;;;;3.09;nan;96164.94;4977422;28;20223;-70
2020/12/14 02:32:18;;;;;;;12.00;4.57;;;;;;;3.06;nan;96157.38;4977294;28;20194;-70
2020/12/14 02:34:46;;;;;;;8.48;4.88;;;;;;;3.07;nan;96165.91;4975382;28;20898;-70
2020/12/14 02:37:15;;;;;;;7.65;3.88;;;;;;;3.07;nan;96151.34;4976563;28;20298;-69
2020/12/14 02:39:42;;;;;;;6.65;4.60;;;;;;;3.23;nan;96162.66;4976987;28;20245;-69
2020/12/14 02:42:11;;;;;;;6.80;4.85;;;;;;;3.14;nan;96162.19;4976758;28;20228;-67
2020/12/14 02:44:38;;;;;;;6.88;3.63;;;;;;;3.11;nan;96159.75;4976745;28;20230;-68
2020/12/14 02:47:05;;;;;;;7.88;4.57;;;;;;;3.03;nan;96149.78;4977606;28;20207;-67
2020/12/14 02:49:32;;;;;;;7.53;4.60;;;;;;;2.94;nan;96149.31;4976124;28;20662;-67
2020/12/14 02:51:59;;;;;;;16.98;4.15;;;;;;;2.83;nan;96151.47;4973422;28;20244;-68
2020/12/14 02:54:25;;;;;;;8.15;4.45;;;;;;;2.85;nan;96149.66;4974958;28;20516;-67
2020/12/14 02:56:52;;;;;;;14.77;5.00;;;;;;;2.79;nan;96135.34;4976998;28;20285;-67
2020/12/14 02:59:21;;;;;;;14.73;5.55;;;;;;;2.80;nan;96131.88;4976384;28;20701;-67
2020/12/14 03:01:48;;;;;;;11.05;5.38;;;;;;;2.76;nan;96135.47;4977022;28;20210;-70
2020/12/14 03:04:15;;;;;;;11.40;6.00;;;;;;;2.70;nan;96124.56;4976443;28;20229;-68
2020/12/14 03:06:44;;;;;;;9.15;4.80;;;;;;;2.76;nan;96135.47;4977418;28;20587;-67
2020/12/14 03:09:11;;;;;;;11.57;5.30;;;;;;;2.76;nan;96140.59;4975615;28;20344;-67
2020/12/14 03:11:38;;;;;;;11.70;5.68;;;;;;;2.73;nan;96135.56;4976069;28;20260;-67
2020/12/14 03:14:06;;;;;;;10.32;5.40;;;;;;;2.68;nan;96122.09;4975401;28;20229;-66
2020/12/14 03:16:38;;;;;;;9.85;5.45;;;;;;;2.76;nan;96117.47;4976465;28;20290;-70
2020/12/14 03:19:05;;;;;;;12.45;5.95;;;;;;;2.75;nan;96108.09;4977534;28;20618;-66
2020/12/14 03:21:32;;;;;;;12.05;6.05;;;;;;;2.77;nan;96108.88;4980624;28;20642;-67
2020/12/14 03:23:59;;;;;;;20.23;6.00;;;;;;;2.83;nan;96125.78;4975956;28;20304;-68
2020/12/14 03:26:26;;;;;;;11.65;5.85;;;;;;;2.90;nan;96122.06;4976971;28;20326;-68
2020/12/14 03:28:53;;;;;;;9.02;5.95;;;;;;;2.88;nan;96121.31;4977317;28;20284;-70
2020/12/14 03:31:20;;;;;;;14.35;5.38;;;;;;;2.89;nan;96118.69;4976860;28;20199;-69
2020/12/14 03:33:48;;;;;;;11.43;6.00;;;;;;;2.89;nan;96121.25;4976799;28;20694;-68
2020/12/14 03:36:15;;;;;;;11.88;6.63;;;;;;;2.86;nan;96121.34;4976545;28;20303;-68
2020/12/14 03:38:42;;;;;;;9.82;5.32;;;;;;;2.82;nan;96118.97;4973846;28;20346;-69
2020/12/14 03:41:08;;;;;;;12.77;5.65;;;;;;;2.80;nan;96124.16;4975943;28;20612;-67
2020/12/14 03:43:35;;;;;;;12.85;6.55;;;;;;;2.86;nan;96121.34;4976391;28;20549;-67
2020/12/14 03:46:02;;;;;;;11.10;6.18;;;;;;;2.80;nan;96126.72;4977062;28;20284;-66
2020/12/14 03:48:29;;;;;;;16.30;7.10;;;;;;;2.77;nan;96121.72;4976378;28;20304;-68
2020/12/14 03:50:56;;;;;;;10.30;5.63;;;;;;;2.76;nan;96122.63;4976811;28;20405;-69
2020/12/14 03:53:23;;;;;;;9.93;6.65;;;;;;;2.84;nan;96124.88;4975377;28;20248;-69
2020/12/14 03:55:51;;;;;;;11.68;6.18;;;;;;;2.78;nan;96125.97;4975366;28;20574;-67
2020/12/14 03:58:18;;;;;;;10.05;5.70;;;;;;;2.82;nan;96122.38;4975581;28;20226;-71
2020/12/14 04:00:47;;;;;;;11.45;5.65;;;;;;;2.72;nan;96128.75;4976010;28;20284;-69
2020/12/14 04:03:14;;;;;;;11.02;5.30;;;;;;;2.72;nan;96127.94;4975973;28;20309;-67
2020/12/14 04:05:42;;;;;;;12.85;6.47;;;;;;;2.71;nan;96131.41;4976219;28;20548;-67
2020/12/14 04:08:10;;;;;;;15.80;6.47;;;;;;;2.65;nan;96124.75;4976127;28;20207;-68
2020/12/14 04:10:38;;;;;;;9.25;5.68;;;;;;;2.59;nan;96132.69;4975815;28;20602;-68
2020/12/14 04:13:05;;;;;;;13.98;6.38;;;;;;;2.53;nan;96132.97;4974944;28;20190;-69
2020/12/14 04:15:31;;;;;;;11.73;5.95;;;;;;;2.45;nan;96136.69;4974975;28;20688;-67
2020/12/14 04:17:58;;;;;;;11.00;5.82;;;;;;;2.41;nan;96142.84;4970452;28;20278;-68
2020/12/14 04:20:25;;;;;;;14.75;7.78;;;;;;;2.39;nan;96148.06;4981982;28;20247;-73
2020/12/14 04:22:52;;;;;;;15.98;7.03;;;;;;;2.32;nan;96136.34;4979461;28;20595;-69
2020/12/14 04:25:20;;;;;;;14.25;5.80;;;;;;;2.25;nan;96134.03;4979088;28;20585;-70
2020/12/14 04:27:46;;;;;;;12.65;6.10;;;;;;;2.25;nan;96137.44;4980740;28;20558;-69
2020/12/14 04:30:13;;;;;;;14.95;7.40;;;;;;;2.24;nan;96129.81;4979216;28;20308;-68
2020/12/14 04:32:40;;;;;;;14.98;7.03;;;;;;;2.30;nan;96133.00;4980083;28;20285;-68
2020/12/14 04:35:07;;;;;;;12.43;7.18;;;;;;;2.26;nan;96123.72;4979835;28;20917;-69
2020/12/14 04:37:34;;;;;;;14.63;7.72;;;;;;;2.33;nan;96132.88;4985353;28;20697;-68
2020/12/14 04:40:01;;;;;;;18.85;7.50;;;;;;;2.41;nan;96138.53;4979716;28;20697;-68
2020/12/14 04:42:30;;;;;;;9.45;5.05;;;;;;;2.51;nan;96132.16;4979342;28;20296;-67
2020/12/14 04:44:59;;;;;;;17.25;8.13;;;;;;;2.56;nan;96132.00;4979440;28;20700;-70
2020/12/14 04:47:27;;;;;;;17.50;8.40;;;;;;;2.64;nan;96125.66;4978862;28;20343;-69
2020/12/14 04:49:55;;;;;;;14.88;8.30;;;;;;;2.64;nan;96123.09;4983595;28;20743;-69
2020/12/14 04:52:24;;;;;;;18.98;8.43;;;;;;;2.69;nan;96116.06;4978833;28;20727;-68
2020/12/14 04:54:50;;;;;;;19.00;8.82;;;;;;;2.60;nan;96123.28;4979246;28;20236;-69
2020/12/14 04:57:21;;;;;;;13.50;8.07;;;;;;;2.57;nan;96120.84;4978902;28;20193;-69
2020/12/14 04:59:51;;;;;;;13.40;7.30;;;;;;;2.53;nan;96132.09;4978694;28;20317;-68
2020/12/14 05:02:18;;;;;;;15.35;8.40;;;;;;;2.53;nan;96121.84;4979223;28;20211;-69
2020/12/14 05:04:45;;;;;;;15.27;8.15;;;;;;;2.50;nan;96137.38;4978053;28;20233;-68
2020/12/14 05:07:12;;;;;;;17.02;11.70;;;;;;;2.73;nan;96127.03;4977777;28;20482;-69
2020/12/14 05:09:43;;;;;;;14.85;8.23;;;;;;;2.76;nan;96130.34;4978889;28;20265;-68
2020/12/14 05:12:20;;;;;;;14.02;8.25;;;;;;;2.82;nan;96135.22;4978599;28;20197;-68
2020/12/14 05:14:47;;;;;;;14.15;7.32;;;;;;;2.84;nan;96128.28;4976867;28;20661;-68
2020/12/14 05:17:24;;;;;;;17.48;8.68;;;;;;;2.85;nan;96131.69;4978666;28;20682;-67
2020/12/14 05:19:52;;;;;;;17.10;9.65;;;;;;;2.81;nan;96115.53;4980929;28;20577;-69
2020/12/14 05:22:20;;;;;;;18.60;7.90;;;;;;;2.75;nan;96138.94;4979912;28;20767;-69
2020/12/14 05:24:51;;;;;;;14.13;7.78;;;;;;;2.65;nan;96132.47;4978145;28;20285;-72
2020/12/14 05:27:29;;;;;;;19.77;9.57;;;;;;;2.61;nan;96130.06;4979327;28;20570;-70
2020/12/14 05:29:57;;;;;;;15.30;8.40;;;;;;;2.57;nan;96129.34;4977656;28;20759;-69
2020/12/14 05:32:25;;;;;;;17.10;8.45;;;;;;;2.56;nan;96132.00;4977573;28;20276;-69
2020/12/14 05:34:52;;;;;;;16.52;8.13;;;;;;;2.52;nan;96126.16;4978348;28;20313;-69
2020/12/14 05:37:19;;;;;;;14.82;8.52;;;;;;;2.50;nan;96122.78;4977919;28;20225;-69
2020/12/14 05:39:46;;;;;;;16.83;8.32;;;;;;;2.55;nan;96120.88;4978189;28;20581;-69
2020/12/14 05:42:15;;;;;;;13.25;7.60;;;;;;;2.51;nan;96119.31;4978816;28;20562;-69
2020/12/14 05:44:47;;;;;;;18.55;8.73;;;;;;;2.40;nan;96121.47;4978050;28;20741;-69
2020/12/14 05:47:26;;;;;;;19.40;7.68;;;;;;;2.45;nan;96124.72;4978121;28;20555;-69
2020/12/14 05:49:54;;;;;;;15.13;8.30;;;;;;;2.40;nan;96121.47;4977176;28;20238;-69
2020/12/14 05:52:23;;;;;;;18.23;8.90;;;;;;;2.38;nan;96122.41;4977725;28;20704;-67
2020/12/14 05:54:52;;;;;;;18.30;8.75;;;;;;;2.32;nan;96117.50;4977560;28;20221;-67
2020/12/14 05:57:32;;;;;;;17.10;8.10;;;;;;;2.33;nan;96132.03;4978001;28;20284;-66
2020/12/14 06:00:03;;;;;;;17.60;9.23;;;;;;;2.33;nan;96140.56;4977450;28;20226;-69
2020/12/14 06:02:31;;;;;;;17.88;8.85;;;;;;;2.28;nan;96129.63;4978485;28;20993;-68
2020/12/14 06:05:02;;;;;;;20.42;9.60;;;;;;;2.31;nan;96129.53;4978017;28;20244;-69
2020/12/14 06:07:30;;;;;;;19.00;9.25;;;;;;;2.30;nan;96132.16;4977861;28;20198;-68
2020/12/14 06:10:09;;;;;;;19.17;9.82;;;;;;;2.33;nan;96132.88;4977233;28;20221;-69
2020/12/14 06:12:37;;;;;;;17.40;8.85;;;;;;;2.35;nan;96133.63;4976677;28;20191;-69
2020/12/14 06:15:07;;;;;;;17.55;9.82;;;;;;;2.28;nan;96132.19;4977056;28;20620;-69
2020/12/14 06:17:36;;;;;;;17.70;8.85;;;;;;;2.29;nan;96126.16;4976850;28;20196;-69
2020/12/14 06:20:13;;;;;;;16.40;9.30;;;;;;;2.34;nan;96128.56;4980033;28;20744;-69
2020/12/14 06:22:44;;;;;;;18.70;8.73;;;;;;;2.31;nan;96132.09;4976815;28;20205;-68
2020/12/14 06:25:11;;;;;;;19.05;9.63;;;;;;;2.33;nan;96130.31;4976639;28;20647;-68
2020/12/14 06:27:38;;;;;;;21.20;9.10;;;;;;;2.17;nan;96129.22;4978031;28;20304;-71
2020/12/14 06:30:31;;;;;;;19.50;9.85;;;;;;;2.17;nan;96124.06;4977054;28;20532;-70
2020/12/14 06:33:00;;;;;;;21.73;9.85;;;;;;;2.21;nan;96123.03;4976825;28;20194;-69
2020/12/14 06:35:45;;;;;;;16.33;8.95;;;;;;;2.21;nan;96124.78;4977261;28;20685;-70
2020/12/14 06:38:12;;;;;;;14.13;8.18;;;;;;;2.19;nan;96122.28;4974226;28;20236;-70
2020/12/14 06:40:58;;;;;;;20.40;9.15;;;;;;;2.13;nan;96127.63;4976948;28;20620;-69
2020/12/14 06:43:29;;;;;;;14.35;7.93;;;;;;;2.15;nan;96125.00;4975944;28;20231;-69
2020/12/14 06:45:57;;;;;;;18.85;10.38;;;;;;;2.17;nan;96129.22;4977050;28;20237;-69
2020/12/14 06:48:37;;;;;;;19.67;10.00;;;;;;;2.17;nan;96124.06;4976697;28;20559;-69
2020/12/14 06:51:05;;;;;;;18.98;9.70;;;;;;;2.13;nan;96127.63;4973010;28;20247;-68
2020/12/14 06:53:38;;;;;;;19.80;8.55;;;;;;;2.18;nan;96127.47;4975165;28;20252;-69
2020/12/14 06:56:05;;;;;;;16.15;8.02;;;;;;;2.22;nan;96132.41;4974739;28;20293;-69
2020/12/14 06:58:35;;;;;;;17.20;8.77;;;;;;;2.32;nan;96135.47;4975065;28;20248;-69
2020/12/14 07:01:03;;;;;;;18.77;9.43;;;;;;;2.35;nan;96133.63;4972358;28;20516;-69
2020/12/14 07:03:35;;;;;;;18.25;9.15;;;;;;;2.43;nan;96131.63;4976229;28;20896;-68
2020/12/14 07:06:04;;;;;;;18.48;9.60;;;;;;;2.48;nan;96140.00;4972418;28;20201;-69
2020/12/14 07:08:37;;;;;;;16.35;9.00;;;;;;;2.63;nan;96143.69;4976051;28;20230;-66
2020/12/14 07:11:11;;;;;;;18.80;8.93;;;;;;;2.63;nan;96136.84;4972469;28;20525;-66
2020/12/14 07:13:38;;;;;;;15.63;8.38;;;;;;;2.66;nan;96143.59;4974992;28;20594;-67
2020/12/14 07:16:06;;;;;;;19.92;10.73;;;;;;;2.61;nan;96141.19;4976451;28;20632;-67
2020/12/14 07:18:35;;;;;;;21.73;10.43;;;;;;;2.59;nan;96148.09;4975802;28;20227;-66
2020/12/14 07:21:07;;;;;;;23.63;12.13;;;;;;;2.61;nan;96130.94;4979570;28;20251;-66
2020/12/14 07:23:36;;;;;;;18.20;8.55;;;;;;;2.65;nan;96127.31;4974643;28;20231;-66
2020/12/14 07:26:03;;;;;;;17.60;9.48;;;;;;;2.75;nan;96141.50;4976600;28;20199;-67
2020/12/14 07:28:42;;;;;;;18.02;9.00;;;;;;;2.76;nan;96140.59;4976623;28;20319;-67
2020/12/14 07:31:11;;;;;;;22.42;10.50;;;;;;;2.86;nan;96147.03;4973736;28;20601;-67
2020/12/14 07:33:40;;;;;;;19.58;9.80;;;;;;;2.90;nan;96151.19;4975038;28;20548;-68
2020/12/14 07:36:09;;;;;;;21.05;9.82;;;;;;;2.81;nan;96146.38;4976228;28;20316;-69
2020/12/14 07:38:46;;;;;;;19.60;10.10;;;;;;;2.99;nan;96166.22;4976090;28;20268;-69
2020/12/14 07:41:14;;;;;;;20.45;9.77;;;;;;;2.88;nan;96165.81;4976928;28;20327;-69
2020/12/14 07:43:45;;;;;;;24.75;9.95;;;;;;;2.80;nan;96172.97;4975655;28;20603;-68
2020/12/14 07:46:23;;;;;;;18.65;10.18;;;;;;;2.93;nan;96163.91;4975819;28;20221;-68
2020/12/14 07:48:56;;;;;;;18.38;9.30;;;;;;;3.68;nan;96163.34;4974395;28;20745;-68
2020/12/14 07:51:23;;;;;;;14.70;8.10;;;;;;;4.87;nan;96161.38;4976628;28;20661;-69
2020/12/14 07:53:51;;;;;;;16.30;10.40;;;;;;;5.72;nan;96166.63;4975024;28;20330;-68
2020/12/14 07:56:18;;;;;;;14.02;7.43;;;;;;;6.47;nan;96168.72;4975592;28;20284;-69
2020/12/14 07:58:47;;;;;;;17.35;8.73;;;;;;;6.98;nan;96171.09;4975932;28;20691;-69
2020/12/14 08:01:16;;;;;;;15.07;9.05;;;;;;;7.82;nan;96157.66;4976446;28;20272;-68
2020/12/14 08:03:43;;;;;;;14.85;7.32;;;;;;;8.70;nan;96163.47;4974873;28;20551;-69
2020/12/14 08:06:16;;;;;;;12.30;7.53;;;;;;;9.33;nan;96159.44;4975539;28;20225;-69
2020/12/14 08:08:47;;;;;;;11.80;7.20;;;;;;;10.11;nan;96154.22;4973230;28;20248;-69
2020/12/14 08:11:15;;;;;;;14.43;8.03;;;;;;;10.58;nan;96157.03;4975245;28;21139;-68
2020/12/14 08:13:50;;;;;;;10.80;7.60;;;;;;;10.91;nan;96146.88;4973355;28;20503;-69
2020/12/14 08:16:20;;;;;;;13.70;7.80;;;;;;;11.23;nan;96150.66;4975218;28;20865;-69
2020/12/14 08:18:49;;;;;;;13.30;8.40;;;;;;;11.36;nan;96140.16;4975438;28;21025;-69
2020/12/14 08:21:24;;;;;;;13.10;8.13;;;;;;;11.68;nan;96138.69;4979250;28;20542;-69
2020/12/14 08:23:52;;;;;;;13.30;8.00;;;;;;;13.16;nan;96130.56;4974732;28;20599;-69
2020/12/14 08:26:30;;;;;;;11.37;6.90;;;;;;;13.48;nan;96138.44;4976112;28;20720;-68
2020/12/14 08:28:58;;;;;;;12.87;8.10;;;;;;;13.23;nan;96133.50;4976270;28;20557;-68
2020/12/14 08:31:25;;;;;;;11.27;7.90;;;;;;;12.78;nan;96139.72;4975600;28;20535;-68
2020/12/14 08:33:55;;;;;;;10.13;7.37;;;;;;;13.07;nan;96140.91;4975094;28;20942;-69
2020/12/14 08:36:24;;;;;;;8.80;6.67;;;;;;;13.69;nan;96131.44;4975430;28;20555;-71
2020/12/14 08:38:52;;;;;;;11.90;7.87;;;;;;;13.37;nan;96141.06;4975322;28;20583;-69
2020/12/14 08:41:21;;;;;;;10.17;6.90;;;;;;;12.59;nan;96141.25;4975477;28;20969;-68
2020/12/14 08:43:48;;;;;;;12.73;8.53;;;;;;;12.84;nan;96142.66;4974647;28;20500;-68
2020/12/14 08:46:17;;;;;;;10.80;7.03;;;;;;;13.48;nan;96141.06;4975773;28;20487;-69
2020/12/14 08:48:46;;;;;;;13.37;7.93;;;;;;;14.55;nan;96143.38;4973445;28;20855;-68
2020/12/14 08:51:15;;;;;;;10.07;7.20;;;;;;;15.04;nan;96138.22;4975513;28;20484;-69
2020/12/14 08:53:45;;;;;;;12.13;8.17;;;;;;;15.44;nan;96147.75;4974490;28;20587;-69
2020/12/14 08:56:16;;;;;;;13.33;7.13;;;;;;;15.01;nan;96149.78;4974538;28;21017;-69
2020/12/14 08:58:52;;;;;;;11.47;6.60;;;;;;;14.50;nan;96153.41;4974767;28;21135;-68
2020/12/14 09:01:20;;;;;;;11.53;7.17;;;;;;;14.76;nan;96149.41;4974738;28;20926;-69
2020/12/14 09:03:55;;;;;;;13.57;9.20;;;;;;;15.44;nan;96147.75;4974268;28;20480;-68
2020/12/14 09:06:31;;;;;;;10.97;7.50;;;;;;;15.16;nan;96147.63;4976003;28;20509;-68
2020/12/14 09:09:05;;;;;;;12.27;6.70;;;;;;;14.68;nan;96157.91;4978574;28;21042;-68
2020/12/14 09:11:34;;;;;;;10.20;7.10;;;;;;;15.71;nan;96147.09;4977824;28;20905;-70
2020/12/14 09:14:06;;;;;;;10.13;6.50;;;;;;;-142.13;100.00;58370.81;4974081;28;21020;-68
2020/12/14 09:16:34;;;;;;;13.33;7.13;;;;;;;-142.13;100.00;58370.81;4978246;28;20515;-69
2020/12/14 09:19:02;;;;;;;9.37;6.37;;;;;;;-142.13;100.00;58370.81;4974455;28;20497;-70
2020/12/14 09:21:30;;;;;;;8.03;6.50;;;;;;;-142.13;100.00;58370.81;4982431;28;20839;-69
2020/12/14 09:24:16;;;;;;;8.73;6.40;;;;;;;-142.13;100.00;58370.81;4977479;28;20560;-69
2020/12/14 09:26:45;;;;;;;9.27;6.70;;;;;;;-142.13;100.00;58370.81;4976648;28;21117;-69
2020/12/14 09:29:13;;;;;;;10.07;6.60;;;;;;;-142.13;100.00;58370.81;4978628;28;20924;-68
2020/12/14 09:31:47;;;;;;;9.00;5.40;;;;;;;-142.13;100.00;58370.81;4977676;28;20444;-70
2020/12/14 09:34:15;;;;;;;15.17;5.93;;;;;;;-142.13;100.00;58370.81;4977723;28;20467;-69
2020/12/14 09:36:43;;;;;;;9.30;5.50;;;;;;;-142.13;100.00;58370.81;4984701;28;20495;-70
2020/12/14 09:39:10;;;;;;;9.47;6.23;;;;;;;-142.13;100.00;58370.81;5000903;28;20461;-70
2020/12/14 09:41:38;;;;;;;9.13;5.53;;;;;;;-142.13;100.00;58370.81;5004989;28;20479;-69
2020/12/14 09:44:06;;;;;;;8.97;5.30;;;;;;;-142.13;100.00;58370.81;4999106;28;20873;-68
2020/12/14 09:46:33;;;;;;;9.00;5.60;;;;;;;-142.13;100.00;58370.81;4997631;28;20495;-69
2020/12/14 09:49:00;;;;;;;8.73;5.80;;;;;;;-142.13;100.00;58370.81;4994220;28;20852;-68
2020/12/14 09:51:28;;;;;;;8.87;5.40;;;;;;;-142.13;100.00;58370.81;4997950;28;20530;-68
2020/12/14 09:53:56;;;;;;;10.13;5.97;;;;;;;-142.13;100.00;58370.81;4996195;28;20943;-69
2020/12/14 09:56:27;;;;;;;8.90;5.60;;;;;;;-142.13;100.00;58370.81;4992169;28;20561;-69
2020/12/14 09:58:55;;;;;;;12.03;5.57;;;;;;;-142.13;100.00;58370.81;4991289;28;20464;-69
2020/12/14 10:01:24;;;;;;;10.10;6.40;;;;;;;-142.13;100.00;58370.81;4989368;28;20826;-69
2020/12/14 10:03:52;;;;;;;10.63;5.87;;;;;;;-142.13;100.00;58370.81;4990178;28;20686;-69
2020/12/14 10:06:19;;;;;;;10.17;5.80;;;;;;;-142.13;100.00;58370.81;4997002;28;20464;-69
2020/12/14 10:08:46;;;;;;;8.40;5.60;;;;;;;-142.13;100.00;58370.81;4985465;28;20534;-69
2020/12/14 10:11:14;;;;;;;11.27;6.40;;;;;;;-142.13;100.00;58370.81;5002408;28;20518;-68
2020/12/14 10:13:43;;;;;;;11.87;6.90;;;;;;;-142.13;100.00;58370.81;4992815;28;20519;-69
2020/12/14 10:16:13;;;;;;;8.20;4.97;;;;;;;-142.13;100.00;58370.81;4999648;28;20514;-68
2020/12/14 10:18:43;;;;;;;8.60;5.47;;;;;;;-142.13;100.00;58370.81;4995148;28;20861;-68
2020/12/14 10:21:11;;;;;;;9.87;5.90;;;;;;;-142.13;100.00;58370.81;4992781;28;20503;-68
2020/12/14 10:23:39;;;;;;;10.03;6.00;;;;;;;-142.13;100.00;58370.81;4998660;28;20566;-69
2020/12/14 10:26:08;;;;;;;11.77;6.43;;;;;;;-142.13;100.00;58370.81;4995392;28;20837;-68
2020/12/14 10:28:36;;;;;;;13.00;5.73;;;;;;;-142.13;100.00;58370.81;4988896;28;20842;-69
2020/12/14 10:31:07;;;;;;;12.57;5.63;;;;;;;-142.13;100.00;58370.81;4996947;28;20954;-69
2020/12/14 10:33:36;;;;;;;7.80;5.23;;;;;;;-142.13;100.00;58370.81;4990825;28;20959;-71
2020/12/14 10:36:08;;;;;;;13.50;6.37;;;;;;;-142.13;100.00;58370.81;4978350;28;20449;-67
2020/12/14 10:38:34;;;;;;;6.67;4.87;;;;;;;-142.13;100.00;58370.81;4978840;28;20986;-68
2020/12/14 10:41:01;;;;;;;9.20;5.53;;;;;;;-142.13;100.00;58370.81;4978342;28;20445;-68
2020/12/14 10:43:28;;;;;;;7.43;4.90;;;;;;;-142.13;100.00;58370.81;4977015;28;20472;-68
2020/12/14 10:45:55;;;;;;;7.83;4.73;;;;;;;-142.13;100.00;58370.81;4977370;28;21006;-68
2020/12/14 10:48:22;;;;;;;9.37;5.57;;;;;;;-142.13;100.00;58370.81;4978913;28;20920;-68
2020/12/14 10:50:54;;;;;;;15.77;8.87;;;;;;;-142.13;100.00;58370.81;4993837;28;20774;-68
2020/12/14 10:53:21;;;;;;;7.97;5.33;;;;;;;-142.13;100.00;58370.81;5000303;28;20469;-68
2020/12/14 10:55:48;;;;;;;10.10;5.10;;;;;;;-142.13;100.00;58370.81;4994266;28;21014;-69
2020/12/14 10:58:15;;;;;;;46.50;23.50;;;;;;;-142.13;100.00;58370.81;4999080;28;20518;-72
2020/12/14 11:00:42;;;;;;;7.97;5.30;;;;;;;-142.13;100.00;58370.81;4991417;28;20452;-72
2020/12/14 11:03:09;;;;;;;9.40;5.03;;;;;;;-142.13;100.00;58370.81;4978117;28;20474;-70
2020/12/14 11:05:36;;;;;;;7.90;4.97;;;;;;;-142.13;100.00;58370.81;4983052;28;20522;-72
2020/12/14 11:08:04;;;;;;;7.70;4.40;;;;;;;-142.13;100.00;58370.81;4985165;28;20842;-71
2020/12/14 11:10:32;;;;;;;8.87;5.10;;;;;;;-142.13;100.00;58370.81;4985779;28;20811;-71
2020/12/14 11:12:58;;;;;;;14.27;5.37;;;;;;;-142.13;100.00;58370.81;4991550;28;20444;-70
2020/12/14 11:15:25;;;;;;;8.40;5.00;;;;;;;-142.13;100.00;58370.81;4980942;28;20452;-70
2020/12/14 11:17:52;;;;;;;8.90;5.33;;;;;;;-142.13;100.00;58370.81;4982801;28;20453;-70
2020/12/14 11:20:20;;;;;;;6.83;4.40;;;;;;;-142.13;100.00;58370.81;4988416;28;20958;-70
2020/12/14 11:22:47;;;;;;;8.27;5.10;;;;;;;-142.13;100.00;58370.81;4975985;28;20524;-71
2020/12/14 11:25:17;;;;;;;9.00;5.60;;;;;;;-142.13;100.00;58370.81;4975942;28;20811;-70
2020/12/14 11:27:43;;;;;;;10.63;5.03;;;;;;;-142.13;100.00;58370.81;4974513;28;20845;-70
2020/12/14 11:30:11;;;;;;;8.83;4.93;;;;;;;-142.13;100.00;58370.81;4975831;28;20468;-70
2020/12/14 11:32:38;;;;;;;7.93;5.07;;;;;;;-142.13;100.00;58370.81;4975205;28;20800;-71
2020/12/14 11:35:05;;;;;;;8.10;5.47;;;;;;;-142.13;100.00;58370.81;4975123;28;20551;-70
2020/12/14 11:37:32;;;;;;;10.37;5.50;;;;;;;-142.13;100.00;58370.81;4976453;28;20574;-71
2020/12/14 11:39:59;;;;;;;9.80;4.97;;;;;;;-142.13;100.00;58370.81;4976153;28;20927;-70
2020/12/14 11:42:26;;;;;;;9.07;6.03;;;;;;;-142.13;100.00;58370.81;4975247;28;20452;-70
2020/12/14 11:44:53;;;;;;;8.03;4.93;;;;;;;-142.13;100.00;58370.81;4975354;28;20792;-70
2020/12/14 11:47:20;;;;;;;8.03;5.40;;;;;;;-142.13;100.00;58370.81;4975708;28;20993;-71
2020/12/14 11:49:47;;;;;;;6.90;4.30;;;;;;;-142.13;100.00;58370.81;4975782;28;20468;-71